createdAt,value
2022-11-16T00:00:30.497Z,25.27
2022-11-16T00:03:18.274Z,25.20
2022-11-16T00:06:09.890Z,28.25
2022-11-16T00:09:18.839Z,29.75
2022-11-16T00:12:09.844Z,23.95
2022-11-16T00:14:57.474Z,28.92
2022-11-16T00:17:45.178Z,27.60
2022-11-16T00:20:32.843Z,26.55
2022-11-16T00:23:20.690Z,28.98
2022-11-16T00:26:12.578Z,25.95
2022-11-16T00:29:00.344Z,34.13
2022-11-16T00:31:48.631Z,30.02
2022-11-16T00:34:36.472Z,29.13
2022-11-16T00:37:24.121Z,30.67
2022-11-16T00:40:15.414Z,24.52
2022-11-16T00:43:03.049Z,22.05
2022-11-16T00:45:53.467Z,24.27
2022-11-16T00:48:41.105Z,22.73
2022-11-16T00:51:28.920Z,23.45
2022-11-16T00:54:17.185Z,21.92
2022-11-16T00:57:05.340Z,24.23
2022-11-16T00:59:52.991Z,20.88
2022-11-16T01:02:54.757Z,22.55
2022-11-16T01:05:45.393Z,25.20
2022-11-16T01:08:37.216Z,19.38
2022-11-16T01:11:43.295Z,21.58
2022-11-16T01:14:30.930Z,25.73
2022-11-16T01:17:18.595Z,25.65
2022-11-16T01:20:09.464Z,20.75
2022-11-16T01:22:57.562Z,23.02
2022-11-16T01:25:45.259Z,24.05
2022-11-16T01:28:33.548Z,33.65
2022-11-16T01:31:22.134Z,24.80
2022-11-16T01:34:12.193Z,29.40
2022-11-16T01:36:59.872Z,21.73
2022-11-16T01:39:51.611Z,26.25
2022-11-16T01:42:39.868Z,25.85
2022-11-16T01:45:38.942Z,25.35
2022-11-16T01:48:31.002Z,26.20
2022-11-16T01:51:21.390Z,23.27
2022-11-16T01:54:12.757Z,21.42
2022-11-16T01:57:14.131Z,24.13
2022-11-16T02:00:11.702Z,22.48
2022-11-16T02:03:05.312Z,30.35
2022-11-16T02:06:28.821Z,25.27
2022-11-16T02:09:54.958Z,24.77
2022-11-16T02:13:11.689Z,25.58
2022-11-16T02:16:15.915Z,23.55
2022-11-16T02:19:22.526Z,22.67
2022-11-16T02:22:22.442Z,17.98
2022-11-16T02:25:16.980Z,21.58
2022-11-16T02:28:38.827Z,23.60
2022-11-16T02:31:31.184Z,19.92
2022-11-16T02:34:21.576Z,22.33
2022-11-16T02:37:12.107Z,22.83
2022-11-16T02:40:05.089Z,20.52
2022-11-16T02:43:02.247Z,19.55
2022-11-16T02:45:52.949Z,23.90
2022-11-16T02:48:47.298Z,18.67
2022-11-16T02:51:36.841Z,24.88
2022-11-16T02:54:25.234Z,23.00
2022-11-16T02:57:37.933Z,22.27
2022-11-16T03:00:45.028Z,21.42
2022-11-16T03:03:45.913Z,19.33
2022-11-16T03:06:39.647Z,23.27
2022-11-16T03:09:33.194Z,23.52
2022-11-16T03:12:25.624Z,22.70
2022-11-16T03:15:13.836Z,21.63
2022-11-16T03:18:01.601Z,24.67
2022-11-16T03:20:54.046Z,23.85
2022-11-16T03:26:36.345Z,22.80
2022-11-16T03:29:31.870Z,27.42
2022-11-16T03:32:43.487Z,24.73
2022-11-16T03:35:40.835Z,26.90
2022-11-16T03:38:31.384Z,22.58
2022-11-16T03:41:23.072Z,25.30
2022-11-16T03:44:15.335Z,25.57
2022-11-16T03:47:03.116Z,22.92
2022-11-16T03:49:50.899Z,21.52
2022-11-16T03:52:40.269Z,30.27
2022-11-16T03:55:28.344Z,24.25
2022-11-16T03:58:18.826Z,23.63
2022-11-16T04:01:09.058Z,28.17
2022-11-16T04:03:57.092Z,33.83
2022-11-16T04:07:03.499Z,35.80
2022-11-16T04:10:09.531Z,36.67
2022-11-16T04:13:16.726Z,32.35
2022-11-16T04:16:23.287Z,33.45
2022-11-16T04:19:29.292Z,28.35
2022-11-16T04:22:39.745Z,27.88
2022-11-16T04:25:34.941Z,30.92
2022-11-16T04:28:26.863Z,41.42
2022-11-16T04:31:39.998Z,31.50
2022-11-16T04:34:49.926Z,29.17
2022-11-16T04:37:50.019Z,33.83
2022-11-16T04:40:42.741Z,30.30
2022-11-16T04:43:33.186Z,33.58
2022-11-16T04:46:39.211Z,31.58
2022-11-16T04:49:26.953Z,31.30
2022-11-16T04:52:20.460Z,29.45
2022-11-16T04:58:02.186Z,35.13
2022-11-16T05:00:52.485Z,30.70
2022-11-16T05:03:42.208Z,28.52
2022-11-16T05:06:29.897Z,27.10
2022-11-16T05:09:17.611Z,27.88
2022-11-16T05:12:06.106Z,31.60
2022-11-16T05:14:56.583Z,26.88
2022-11-16T05:17:55.073Z,30.25
2022-11-16T05:21:04.450Z,30.70
2022-11-16T05:24:21.099Z,26.25
2022-11-16T05:27:17.210Z,63.25
2022-11-16T05:30:06.272Z,34.03
2022-11-16T05:32:54.723Z,31.02
2022-11-16T05:35:45.615Z,37.53
2022-11-16T05:38:35.196Z,42.15
2022-11-16T05:41:23.298Z,48.30
2022-11-16T05:44:11.593Z,48.42
2022-11-16T05:47:00.309Z,41.70
2022-11-16T05:49:48.845Z,55.40
2022-11-16T05:52:39.224Z,73.25
2022-11-16T05:55:31.140Z,75.18
2022-11-16T05:58:19.077Z,78.68
2022-11-16T06:01:09.037Z,50.22
2022-11-16T06:04:01.258Z,38.70
2022-11-16T06:06:51.359Z,41.10
2022-11-16T06:09:40.007Z,50.53
2022-11-16T06:12:37.785Z,46.70
2022-11-16T06:15:25.797Z,42.25
2022-11-16T06:18:13.815Z,42.65
2022-11-16T06:21:01.648Z,37.70
2022-11-16T06:23:52.315Z,37.17
2022-11-16T06:26:43.145Z,40.88
2022-11-16T06:29:30.945Z,45.70
2022-11-16T06:32:20.782Z,54.13
2022-11-16T06:35:09.178Z,45.15
2022-11-16T06:37:59.249Z,53.03
2022-11-16T06:40:59.008Z,56.25
2022-11-16T06:43:49.149Z,47.20
2022-11-16T06:46:39.737Z,44.67
2022-11-16T06:49:28.249Z,58.90
2022-11-16T06:52:19.887Z,68.20
2022-11-16T06:55:08.007Z,91.55
2022-11-16T06:57:57.360Z,46.97
2022-11-16T07:00:47.928Z,47.38
2022-11-16T07:03:36.679Z,50.35
2022-11-16T07:06:25.742Z,45.13
2022-11-16T07:09:14.573Z,45.28
2022-11-16T07:12:02.355Z,50.38
2022-11-16T07:14:55.857Z,36.75
2022-11-16T07:17:45.886Z,49.92
2022-11-16T07:20:34.846Z,56.17
2022-11-16T07:23:23.647Z,76.50
2022-11-16T07:26:12.098Z,58.60
2022-11-16T07:29:05.954Z,47.85
2022-11-16T07:31:56.097Z,43.80
2022-11-16T07:35:02.447Z,38.95
2022-11-16T07:37:51.519Z,74.35
2022-11-16T07:40:39.613Z,47.95
2022-11-16T07:43:35.436Z,50.13
2022-11-16T07:46:48.487Z,42.80
2022-11-16T07:49:37.561Z,54.05
2022-11-16T07:52:37.284Z,60.45
2022-11-16T07:55:33.473Z,52.30
2022-11-16T07:58:23.238Z,53.30
2022-11-16T08:01:13.546Z,56.72
2022-11-16T08:04:04.555Z,52.35
2022-11-16T08:06:52.507Z,45.60
2022-11-16T08:09:41.598Z,64.07
2022-11-16T08:12:32.759Z,56.53
2022-11-16T08:15:20.623Z,52.85
2022-11-16T08:18:08.841Z,48.53
2022-11-16T08:20:59.157Z,42.40
2022-11-16T08:23:47.347Z,45.65
2022-11-16T08:26:35.665Z,47.05
2022-11-16T08:29:29.609Z,49.00
2022-11-16T08:32:19.261Z,53.60
2022-11-16T08:35:09.875Z,56.85
2022-11-16T08:37:58.036Z,73.82
2022-11-16T08:40:51.057Z,67.72
2022-11-16T08:43:42.223Z,70.00
2022-11-16T08:46:30.491Z,63.15
2022-11-16T08:49:31.267Z,54.35
2022-11-16T08:52:19.068Z,55.38
2022-11-16T08:55:07.858Z,71.35
2022-11-16T08:57:56.005Z,57.72
2022-11-16T09:00:46.900Z,60.90
2022-11-16T09:03:34.592Z,54.70
2022-11-16T09:06:24.611Z,55.05
2022-11-16T09:09:12.307Z,52.83
2022-11-16T09:15:06.762Z,60.45
2022-11-16T09:17:55.200Z,54.45
2022-11-16T09:20:46.115Z,59.28
2022-11-16T09:23:33.796Z,70.40
2022-11-16T09:26:23.447Z,58.90
2022-11-16T09:29:13.181Z,57.88
2022-11-16T09:32:07.034Z,47.40
2022-11-16T09:34:54.738Z,53.78
2022-11-16T09:37:45.231Z,57.90
2022-11-16T09:40:39.083Z,54.00
2022-11-16T09:44:02.159Z,50.85
2022-11-16T09:46:59.088Z,50.53
2022-11-16T09:50:12.776Z,47.15
2022-11-16T09:53:14.664Z,52.80
2022-11-16T09:56:21.837Z,81.18
2022-11-16T09:59:18.406Z,48.20
2022-11-16T10:02:50.732Z,57.50
2022-11-16T10:05:57.536Z,51.17
2022-11-16T10:08:49.210Z,44.15
2022-11-16T10:11:55.603Z,52.42
2022-11-16T10:15:06.910Z,36.33
2022-11-16T10:18:04.632Z,37.47
2022-11-16T10:21:09.324Z,45.53
2022-11-16T10:24:18.858Z,41.35
2022-11-16T10:27:27.987Z,34.65
2022-11-16T10:30:18.983Z,36.30
2022-11-16T10:33:12.653Z,34.33
2022-11-16T10:36:14.545Z,36.63
2022-11-16T10:39:02.913Z,39.65
2022-11-16T10:41:50.963Z,34.65
2022-11-16T10:44:38.592Z,29.40
2022-11-16T10:47:42.856Z,32.35
2022-11-16T10:50:45.175Z,35.40
2022-11-16T10:56:30.435Z,25.65
2022-11-16T10:59:21.683Z,22.65
2022-11-16T11:02:37.689Z,25.30
2022-11-16T11:05:27.230Z,21.23
2022-11-16T11:08:26.228Z,23.73
2022-11-16T11:11:40.009Z,24.35
2022-11-16T11:14:27.730Z,24.73
2022-11-16T11:17:18.282Z,19.73
2022-11-16T11:20:07.361Z,24.55
2022-11-16T11:23:04.884Z,25.17
2022-11-16T11:25:58.982Z,26.40
2022-11-16T11:28:50.108Z,19.73
2022-11-16T11:31:45.395Z,24.95
2022-11-16T11:34:40.483Z,25.25
2022-11-16T11:37:34.843Z,19.00
2022-11-16T11:43:34.655Z,21.67
2022-11-16T11:46:50.225Z,23.75
2022-11-16T11:49:42.278Z,21.70
2022-11-16T11:52:39.495Z,17.90
2022-11-16T11:55:27.492Z,21.30
2022-11-16T11:58:18.771Z,18.73
2022-11-16T12:01:34.722Z,24.60
2022-11-16T12:04:50.406Z,21.25
2022-11-16T12:08:12.813Z,18.33
2022-11-16T12:11:10.772Z,23.23
2022-11-16T12:14:18.845Z,17.38
2022-11-16T12:17:17.604Z,18.17
2022-11-16T12:20:42.956Z,21.17
2022-11-16T12:24:01.853Z,19.88
2022-11-16T12:27:15.893Z,21.90
2022-11-16T12:30:18.705Z,23.50
2022-11-16T12:33:15.473Z,22.70
2022-11-16T12:36:29.442Z,17.48
2022-11-16T12:40:00.438Z,16.73
2022-11-16T12:43:09.143Z,20.60
2022-11-16T12:46:03.966Z,19.92
2022-11-16T12:49:03.130Z,21.27
2022-11-16T12:52:10.471Z,15.55
2022-11-16T12:55:28.711Z,18.50
2022-11-16T12:58:27.866Z,26.38
2022-11-16T13:01:37.301Z,41.70
2022-11-16T13:04:34.334Z,30.95
2022-11-16T13:07:39.161Z,34.05
2022-11-16T13:10:31.840Z,120.30
2022-11-16T13:13:38.586Z,54.17
2022-11-16T13:16:27.847Z,61.13
2022-11-16T13:19:16.871Z,26.63
2022-11-16T13:22:14.416Z,21.55
2022-11-16T13:25:07.980Z,60.38
2022-11-16T13:28:00.247Z,55.75
2022-11-16T13:33:51.287Z,43.83
2022-11-16T13:36:45.840Z,39.05
2022-11-16T13:39:58.654Z,26.40
2022-11-16T13:42:58.846Z,45.35
2022-11-16T13:45:52.171Z,64.50
2022-11-16T13:48:45.827Z,83.43
2022-11-16T13:51:33.759Z,152.32
2022-11-16T13:54:46.852Z,65.32
2022-11-16T13:57:35.175Z,54.42
2022-11-16T14:00:30.976Z,65.00
2022-11-16T14:03:18.705Z,114.32
2022-11-16T14:06:24.670Z,112.40
2022-11-16T14:09:49.612Z,120.90
2022-11-16T14:12:51.668Z,140.95
2022-11-16T14:15:39.425Z,68.55
2022-11-16T14:18:37.449Z,56.67
2022-11-16T14:22:12.099Z,63.72
2022-11-16T14:25:14.593Z,30.88
2022-11-16T14:28:20.813Z,33.83
2022-11-16T14:31:14.232Z,28.48
2022-11-16T14:34:08.333Z,42.05
2022-11-16T14:36:56.371Z,48.42
2022-11-16T14:39:45.632Z,48.38
2022-11-16T14:42:48.443Z,50.47
2022-11-16T14:46:14.115Z,39.75
2022-11-16T14:49:02.894Z,44.63
2022-11-16T14:51:55.545Z,40.67
2022-11-16T14:54:52.744Z,42.38
2022-11-16T14:57:40.423Z,46.08
2022-11-16T15:00:30.476Z,54.90
2022-11-16T15:03:18.244Z,87.13
2022-11-16T15:06:07.947Z,96.50
2022-11-16T15:09:02.679Z,99.72
2022-11-16T15:12:09.917Z,90.63
2022-11-16T15:15:01.739Z,85.25
2022-11-16T15:18:07.464Z,78.38
2022-11-16T15:20:55.260Z,63.22
2022-11-16T15:24:02.392Z,58.47
2022-11-16T15:27:20.227Z,42.47
2022-11-16T15:30:37.183Z,52.22
2022-11-16T15:33:31.372Z,66.13
2022-11-16T15:36:31.421Z,66.10
2022-11-16T15:39:33.678Z,88.65
2022-11-16T15:45:23.750Z,81.40
2022-11-16T15:48:19.118Z,81.25
2022-11-16T15:51:23.592Z,116.38
2022-11-16T15:54:22.312Z,101.05
2022-11-16T15:57:13.416Z,80.40
2022-11-16T16:00:02.208Z,81.30
2022-11-16T16:02:52.790Z,70.75
2022-11-16T16:05:41.238Z,79.07
2022-11-16T16:08:40.093Z,56.72
2022-11-16T16:11:28.692Z,72.15
2022-11-16T16:14:25.729Z,69.13
2022-11-16T16:17:24.366Z,76.80
2022-11-16T16:20:19.519Z,71.25
2022-11-16T16:23:07.731Z,223.52
2022-11-16T16:25:55.465Z,166.70
2022-11-16T16:28:44.111Z,132.00
2022-11-16T16:31:31.840Z,158.48
2022-11-16T16:34:19.683Z,138.70
2022-11-16T16:37:10.690Z,142.93
2022-11-16T16:39:59.506Z,124.13
2022-11-16T16:42:48.411Z,114.15
2022-11-16T16:45:39.099Z,97.55
2022-11-16T16:48:27.086Z,104.53
2022-11-16T16:51:17.233Z,98.65
2022-11-16T16:54:05.389Z,95.15
2022-11-16T16:56:56.964Z,99.25
2022-11-16T16:59:45.703Z,100.50
2022-11-16T17:02:33.656Z,105.18
2022-11-16T17:05:21.359Z,103.20
2022-11-16T17:08:09.046Z,113.55
2022-11-16T17:10:56.787Z,106.65
2022-11-16T17:13:44.468Z,113.68
2022-11-16T17:16:33.163Z,106.65
2022-11-16T17:19:23.227Z,92.38
2022-11-16T17:22:11.120Z,93.28
2022-11-16T17:24:58.794Z,114.13
2022-11-16T17:27:46.485Z,95.85
2022-11-16T17:30:34.068Z,119.15
2022-11-16T17:33:21.739Z,135.00
2022-11-16T17:36:12.994Z,130.02
2022-11-16T17:39:00.718Z,120.60
2022-11-16T17:41:48.857Z,102.32
2022-11-16T17:44:36.560Z,96.40
2022-11-16T17:47:24.239Z,106.68
2022-11-16T17:50:12.207Z,111.68
2022-11-16T17:52:59.853Z,134.75
2022-11-16T17:55:47.589Z,125.50
2022-11-16T17:58:35.300Z,118.47
2022-11-16T18:01:23.183Z,110.15
2022-11-16T18:04:10.915Z,117.85
2022-11-16T18:06:59.907Z,126.07
2022-11-16T18:09:47.509Z,122.68
2022-11-16T18:12:38.408Z,122.45
2022-11-16T18:15:28.849Z,115.10
2022-11-16T18:18:16.999Z,125.43
2022-11-16T18:21:05.889Z,120.25
2022-11-16T18:23:54.012Z,115.78
2022-11-16T18:26:42.503Z,127.25
2022-11-16T18:29:30.586Z,109.38
2022-11-16T18:32:18.506Z,104.03
2022-11-16T18:35:10.115Z,115.88
2022-11-16T18:37:57.839Z,98.07
2022-11-16T18:40:45.478Z,90.63
2022-11-16T18:43:34.636Z,92.07
2022-11-16T18:46:25.918Z,80.10
2022-11-16T18:49:13.992Z,96.22
2022-11-16T18:52:01.610Z,103.00
2022-11-16T18:54:49.304Z,121.13
2022-11-16T18:57:36.983Z,110.97
2022-11-16T19:00:27.517Z,95.63
2022-11-16T19:03:15.589Z,94.82
2022-11-16T19:06:08.959Z,88.70
2022-11-16T19:09:00.229Z,79.03
2022-11-16T19:11:47.938Z,81.90
2022-11-16T19:14:35.546Z,75.75
2022-11-16T19:17:25.216Z,88.88
2022-11-16T19:20:21.622Z,120.50
2022-11-16T19:23:29.405Z,117.55
2022-11-16T19:26:19.172Z,98.65
2022-11-16T19:29:07.173Z,104.05
2022-11-16T19:31:57.160Z,106.10
2022-11-16T19:34:44.975Z,105.70
2022-11-16T19:37:32.601Z,97.07
2022-11-16T19:40:24.861Z,116.70
2022-11-16T19:43:12.938Z,98.85
2022-11-16T19:46:18.657Z,102.50
2022-11-16T19:49:08.831Z,110.43
2022-11-16T19:51:56.431Z,95.90
2022-11-16T19:54:44.073Z,102.93
2022-11-16T19:57:34.554Z,96.25
2022-11-16T20:00:22.304Z,118.05
2022-11-16T20:03:10.080Z,113.70
2022-11-16T20:06:24.085Z,110.60
2022-11-16T20:09:12.382Z,103.13
2022-11-16T20:12:00.081Z,114.35
2022-11-16T20:14:47.796Z,128.95
2022-11-16T20:17:37.771Z,138.00
2022-11-16T20:20:25.631Z,116.35
2022-11-16T20:23:16.114Z,130.88
2022-11-16T20:26:09.919Z,139.48
2022-11-16T20:29:00.222Z,137.48
2022-11-16T20:31:47.955Z,140.35
2022-11-16T20:34:35.991Z,140.55
2022-11-16T20:37:23.715Z,162.20
2022-11-16T20:40:11.778Z,151.73
2022-11-16T20:43:00.439Z,142.38
2022-11-16T20:45:52.701Z,128.90
2022-11-16T20:48:41.822Z,114.60
2022-11-16T20:51:30.305Z,99.80
2022-11-16T20:54:18.084Z,111.10
2022-11-16T20:57:06.429Z,97.75
2022-11-16T20:59:54.185Z,94.63
2022-11-16T21:02:47.146Z,85.20
2022-11-16T21:05:34.820Z,85.28
2022-11-16T21:08:22.645Z,71.80
2022-11-16T21:11:19.409Z,76.30
2022-11-16T21:14:17.238Z,65.85
2022-11-16T21:17:04.811Z,69.85
2022-11-16T21:20:25.398Z,56.28
2022-11-16T21:23:03.093Z,48.08
2022-11-16T21:25:50.772Z,40.08
2022-11-16T21:28:38.775Z,30.88
2022-11-16T21:31:33.627Z,26.73
2022-11-16T21:34:21.326Z,22.17
2022-11-16T21:37:09.096Z,18.58
2022-11-16T21:39:56.725Z,16.10
2022-11-16T21:42:44.348Z,17.50
2022-11-16T21:45:31.975Z,17.83
2022-11-16T21:48:22.026Z,24.33
2022-11-16T21:51:10.848Z,27.42
2022-11-16T21:54:01.002Z,34.78
2022-11-16T21:56:48.644Z,34.42
2022-11-16T21:59:36.395Z,34.03
2022-11-16T22:02:24.057Z,35.88
2022-11-16T22:05:34.488Z,43.95
2022-11-16T22:08:22.251Z,35.83
2022-11-16T22:11:11.181Z,33.35
2022-11-16T22:13:58.907Z,32.90
2022-11-16T22:16:46.493Z,23.33
2022-11-16T22:19:34.116Z,16.80
2022-11-16T22:22:22.625Z,16.05
2022-11-16T22:25:10.416Z,14.18
2022-11-16T22:28:19.693Z,14.52
2022-11-16T22:31:16.568Z,11.57
2022-11-16T22:34:04.333Z,10.43
2022-11-16T22:36:51.959Z,12.07
2022-11-16T22:39:39.618Z,9.82
2022-11-16T22:42:27.476Z,17.15
2022-11-16T22:45:15.271Z,10.45
2022-11-16T22:48:03.068Z,11.45
2022-11-16T22:50:50.674Z,10.75
2022-11-16T22:53:38.631Z,12.27
2022-11-16T22:56:27.345Z,10.63
2022-11-16T22:59:15.110Z,11.75
2022-11-16T23:02:05.298Z,16.85
2022-11-16T23:04:52.932Z,13.10
2022-11-16T23:07:44.109Z,13.57
2022-11-16T23:10:51.690Z,23.67
2022-11-16T23:13:57.948Z,16.35
2022-11-16T23:16:46.257Z,14.98
2022-11-16T23:19:53.488Z,12.40
2022-11-16T23:22:59.573Z,10.27
2022-11-16T23:26:05.854Z,10.45
2022-11-16T23:28:53.689Z,11.88
2022-11-16T23:31:42.026Z,12.85
2022-11-16T23:34:29.592Z,13.13
2022-11-16T23:37:17.211Z,11.30
2022-11-16T23:40:05.344Z,12.20
2022-11-16T23:43:11.955Z,13.52
2022-11-16T23:45:59.729Z,17.15
2022-11-16T23:48:47.380Z,14.75
2022-11-16T23:51:35.090Z,16.55
2022-11-16T23:54:22.814Z,10.88
2022-11-16T23:57:10.551Z,12.00
2022-11-16T23:59:58.290Z,10.95
